Pagrindinis puslapis
METAR-TAF:

METAR-TAF

Oro uostai :

Big Spring McMahon-Wrinkle Airport

Big Spring, Teksasas, Jungtinės Amerikos Valstijos

platuma: 32-12N, ilguma: 101-31W, Aukštis: 784 m

Dabartinis oras

Ataskaita buvo paskelbta 28 minutes, ne 16:15 UTC
Vėjas 6 kt iš Rytų
Temperatūra 26°C
Drėgmė 42%
Slėgis 1022 hPa
Matomumas: 11.3 km
Giedras dangus

METAR: KBPG 031615Z AUTO 10006KT 7SM CLR 26/12 A3017 RMK AO2 T02570123

Laikas: 11:43 (16:43 UTC)


TAF: trūkstamas

Orai ataskaitas ir orų prognozės (METAR, TAF).

turimą stotys yra geltonos ir raudonos taškus žemėlapyje.

Perkelti pele per norėdami pamatyti stoties vardą.

Tada spustelėkite, norėdami matyti oro stebėjimo ir prognozės.

Norėdami pakeisti žemėlapį: spustelėkite ant žalios mygtukų su juodo kryžiaus žemyn,; žalią mygtuką su brūkšneliu, jei norite nutolinti; arba žalių rodyklių gretimoms žemėlapius.


METAR-TAF: